Koushinmaru No.5 — JL6695 — position and weather

sailwx.info

Track history (hours):
 
Tides and Currents Weather Stations Pressure Air Temp Water Temp Dewpoint Dewpoint Depression Visibility Wind Speed Wind Dir Waves Ship Positions

Koushinmaru No.5

Last reported at 2018-Feb-20 11:29 UTC. Time now 2018-Feb-20 11:38 UTC.
Position N 35°21' E 139°54'.

Length 75 m; draft 4.8 m.

Type: Cargo ship. MMSI: 431301703.

Date/timePositionNaut miles runAvg speedWind from/ knotsBaromVisibWave heightAir tempDewpointWater temp
2018-Feb-20 11:29N 35°21' E 139°54'0 0.0
2018-Feb-20 11:00N 35°21' E 139°54'0 0.0
2018-Feb-20 10:30N 35°21' E 139°54'0 0.0
2018-Feb-20 10:00N 35°21' E 139°54'0 0.0
2018-Feb-20 09:30N 35°21' E 139°54'0 0.0
2018-Feb-20 09:00N 35°21' E 139°54'0 0.0
2018-Feb-20 08:30N 35°21' E 139°54'0 0.0
2018-Feb-20 08:00N 35°21' E 139°54'0 0.0
2018-Feb-20 07:30N 35°21' E 139°54'0 0.0
2018-Feb-18 05:37N 35°21' E 139°54'0 0.0
2018-Feb-18 05:30N 35°21' E 139°54'3 6.7
2018-Feb-18 05:00N 35°23' E 139°50'611.4
2018-Feb-18 04:30N 35°29' E 139°51'712.4
2018-Feb-18 03:56N 35°35' E 139°56'6 0.4
2018-Feb-17 12:36N 35°41' E 139°57'0 0.0
2018-Feb-17 12:10N 35°41' E 139°57'3 0.4
2018-Feb-17 04:25N 35°38' E 139°58'510.6
2018-Feb-17 03:59N 35°34' E 139°55'611.8
2018-Feb-17 03:30N 35°30' E 139°50'611.7
2018-Feb-17 03:00N 35°27' E 139°45'5 9.0
2018-Feb-17 02:30N 35°28' E 139°39'0 0.3
2018-Feb-17 02:00N 35°29' E 139°39'0 0.0
2018-Feb-17 01:30N 35°29' E 139°39'0 0.0
2018-Feb-17 01:00N 35°29' E 139°39'0 0.0
2018-Feb-17 00:30N 35°29' E 139°39'0 0.0
2018-Feb-17 00:00N 35°29' E 139°39'0 0.0
2018-Feb-16 23:30N 35°29' E 139°39'0 0.0
2018-Feb-16 23:00N 35°29' E 139°39'1 1.1
2018-Feb-16 22:30N 35°28' E 139°40'3 6.3
2018-Feb-16 22:00N 35°27' E 139°43'0 0.0
2018-Feb-16 21:30N 35°27' E 139°43'0 0.0
2018-Feb-16 21:00N 35°27' E 139°43'0 0.0
2018-Feb-16 20:30N 35°27' E 139°43'0 0.0
2018-Feb-16 20:00N 35°27' E 139°43'0 0.0
2018-Feb-16 19:30N 35°27' E 139°43'0 0.0
2018-Feb-16 19:00N 35°27' E 139°43'0 0.1
2018-Feb-16 18:30N 35°27' E 139°43'0 0.1
2018-Feb-16 18:00N 35°27' E 139°43'0 0.0
2018-Feb-16 17:30N 35°27' E 139°43'0 0.0
2018-Feb-16 17:00N 35°27' E 139°43'0 0.0
2018-Feb-16 16:30N 35°27' E 139°43'0 0.1
2018-Feb-16 16:00N 35°27' E 139°43'0 0.0
2018-Feb-16 15:30N 35°27' E 139°43'0 0.0
2018-Feb-16 15:00N 35°27' E 139°43'0 0.0
2018-Feb-16 14:30N 35°27' E 139°43'0 0.1
2018-Feb-16 14:00N 35°27' E 139°43'0 0.1
2018-Feb-16 13:30N 35°27' E 139°43'0 0.0
2018-Feb-16 13:00N 35°27' E 139°43'0 0.0
2018-Feb-16 12:30N 35°27' E 139°43'0 0.0
2018-Feb-16 12:00N 35°27' E 139°43'0 0.0
2018-Feb-16 11:30N 35°27' E 139°43'0 0.0
2018-Feb-16 11:00N 35°27' E 139°43'0 0.0
2018-Feb-16 10:30N 35°27' E 139°43'0 0.0
2018-Feb-16 10:00N 35°27' E 139°43'0 0.0
2018-Feb-16 09:30N 35°27' E 139°43'0 0.0
2018-Feb-16 09:00N 35°27' E 139°43'0 0.0
2018-Feb-16 08:30N 35°27' E 139°43'0 0.0
2018-Feb-16 08:00N 35°27' E 139°43'0 0.0
2018-Feb-16 07:30N 35°27' E 139°43'0 0.0
2018-Feb-16 07:00N 35°27' E 139°43'0 0.0
2018-Feb-16 06:30N 35°27' E 139°43'0 0.0
2018-Feb-16 06:00N 35°27' E 139°43'0 0.0
2018-Feb-16 05:30N 35°27' E 139°43'0 0.0
2018-Feb-16 05:00N 35°27' E 139°43'0 0.0
2018-Feb-16 04:30N 35°27' E 139°43'0 0.1
2018-Feb-16 04:00N 35°27' E 139°43'0 0.0
2018-Feb-16 03:30N 35°27' E 139°43'0 0.5
2018-Feb-16 03:00N 35°27' E 139°43'4 8.9
2018-Feb-16 02:30N 35°22' E 139°43'510.8
2018-Feb-16 02:00N 35°17' E 139°45'510.3
2018-Feb-16 01:30N 35°12' E 139°47'510.8
2018-Feb-16 01:00N 35°07' E 139°46'510.8
2018-Feb-16 00:30N 35°02' E 139°43'510.8
2018-Feb-16 00:00N 34°58' E 139°39'1011.9
2018-Feb-15 23:09N 34°53' E 139°28'312.3
2018-Feb-15 22:55N 34°52' E 139°25'612.0
2018-Feb-15 22:27N 34°49' E 139°19'711.9
2018-Feb-15 21:54N 34°45' E 139°12'511.0
2018-Feb-15 21:26N 34°42' E 139°07'510.9
2018-Feb-15 20:59N 34°39' E 139°03'5 9.9
2018-Feb-15 20:27N 34°36' E 138°58'4 9.8
2018-Feb-15 20:00N 34°35' E 138°52'710.5
2018-Feb-15 19:23N 34°34' E 138°45'411.1
2018-Feb-15 19:00N 34°34' E 138°39'611.3
2018-Feb-15 18:30N 34°34' E 138°33'611.5
2018-Feb-15 17:59N 34°33' E 138°25'611.9
2018-Feb-15 17:30N 34°33' E 138°18'7411.1
2018-Feb-15 10:50N 34°42' E 136°49'412.1
2018-Feb-15 10:30N 34°45' E 136°47'611.6
2018-Feb-15 10:00N 34°51' E 136°45'611.5
2018-Feb-15 09:30N 34°57' E 136°47'611.7
2018-Feb-15 09:00N 35°02' E 136°51'2 4.2
2018-Feb-15 08:30N 35°03' E 136°53'0 0.0
2018-Feb-15 08:00N 35°03' E 136°53'0 0.0
2018-Feb-15 07:30N 35°03' E 136°53'0 0.0
2018-Feb-15 07:00N 35°03' E 136°53'0 0.0
2018-Feb-15 06:30N 35°03' E 136°53'0 0.0
2018-Feb-15 06:00N 35°03' E 136°53'0 0.0
2018-Feb-15 05:30N 35°03' E 136°53'0 0.0
2018-Feb-15 01:10N 35°03' E 136°53'0 0.0
2018-Feb-15 01:00N 35°03' E 136°53'0 0.0
2018-Feb-14 11:04N 35°03' E 136°53'0 0.0
2018-Feb-14 11:00N 35°03' E 136°53'2 3.3
2018-Feb-14 10:30N 35°03' E 136°52'1 1.1
2018-Feb-14 10:01N 35°04' E 136°52'0 0.0
2018-Feb-14 09:30N 35°04' E 136°52'0 0.0
2018-Feb-14 09:01N 35°04' E 136°52'0 0.0
2018-Feb-14 08:30N 35°04' E 136°52'0 0.0
2018-Feb-14 08:01N 35°04' E 136°52'0 0.0
2018-Feb-14 07:30N 35°04' E 136°52'0 0.0
2018-Feb-14 07:00N 35°04' E 136°52'0 0.0
2018-Feb-14 06:30N 35°04' E 136°52'0 0.0
2018-Feb-14 06:01N 35°04' E 136°52'0 0.0
2018-Feb-14 05:31N 35°04' E 136°52'0 0.0
2018-Feb-14 05:00N 35°04' E 136°52'0 0.0
2018-Feb-14 04:30N 35°04' E 136°52'0 0.0
2018-Feb-14 04:00N 35°04' E 136°52'0 0.0
2018-Feb-14 03:31N 35°04' E 136°52'0 0.4
2018-Feb-14 03:00N 35°04' E 136°51'0 0.0
2018-Feb-14 02:31N 35°04' E 136°51'0 0.0
2018-Feb-14 02:00N 35°04' E 136°51'0 0.0
2018-Feb-14 01:31N 35°04' E 136°51'0 0.0
2018-Feb-14 01:01N 35°04' E 136°51'0 0.0
2018-Feb-14 00:31N 35°04' E 136°51'0 0.0
2018-Feb-14 00:00N 35°04' E 136°51'0 0.0
2018-Feb-13 23:31N 35°04' E 136°51'0 0.0
2018-Feb-13 23:01N 35°04' E 136°51'0 0.0
2018-Feb-13 22:31N 35°04' E 136°51'0 0.0
2018-Feb-13 22:00N 35°04' E 136°51'0 0.0
2018-Feb-13 21:31N 35°04' E 136°51'0 0.0
2018-Feb-13 21:01N 35°04' E 136°51'0 0.0
2018-Feb-13 20:31N 35°04' E 136°51'0 0.0
2018-Feb-13 20:00N 35°04' E 136°51'0 0.0
2018-Feb-13 19:31N 35°04' E 136°51'0 0.0
2018-Feb-13 19:01N 35°04' E 136°51'0 0.0
2018-Feb-13 18:30N 35°04' E 136°51'0 0.0
2018-Feb-13 18:01N 35°04' E 136°51'0 0.0
2018-Feb-13 17:30N 35°04' E 136°51'0 0.0
2018-Feb-13 17:00N 35°04' E 136°51'0 0.0
2018-Feb-13 16:30N 35°04' E 136°51'0 0.0
2018-Feb-13 16:01N 35°04' E 136°51'0 0.0
2018-Feb-13 15:30N 35°04' E 136°51'0 0.0
2018-Feb-13 15:01N 35°04' E 136°51'0 0.0
2018-Feb-13 14:30N 35°04' E 136°51'0 0.0
2018-Feb-13 14:01N 35°04' E 136°51'0 0.0
2018-Feb-13 13:30N 35°04' E 136°51'0 0.0
2018-Feb-13 13:01N 35°04' E 136°51'0 0.0
2018-Feb-13 12:31N 35°04' E 136°51'0 0.0
2018-Feb-13 12:00N 35°04' E 136°51'0 0.0
2018-Feb-13 11:31N 35°04' E 136°51'0 0.0
2018-Feb-13 11:00N 35°04' E 136°51'0 0.0
2018-Feb-13 10:31N 35°04' E 136°51'0 0.0
2018-Feb-13 10:00N 35°04' E 136°51'0 0.0
2018-Feb-13 09:30N 35°04' E 136°51'0 0.0
2018-Feb-13 09:00N 35°04' E 136°51'0 0.0
2018-Feb-13 08:31N 35°04' E 136°51'0 0.0
2018-Feb-13 08:00N 35°04' E 136°51'0 0.0
2018-Feb-13 07:31N 35°04' E 136°51'0 0.0
2018-Feb-13 07:01N 35°04' E 136°51'0 0.0
2018-Feb-13 06:30N 35°04' E 136°51'0 0.0
2018-Feb-13 06:00N 35°04' E 136°51'0 0.0
2018-Feb-13 05:31N 35°04' E 136°51'0 0.0
2018-Feb-13 05:01N 35°04' E 136°51'0 0.3
2018-Feb-13 04:30N 35°04' E 136°52'0 0.0
2018-Feb-13 04:00N 35°04' E 136°52'0 0.0
2018-Feb-13 03:31N 35°04' E 136°52'0 0.0
2018-Feb-13 03:00N 35°04' E 136°52'0 0.0
2018-Feb-13 02:31N 35°04' E 136°52'0 0.0
2018-Feb-13 02:00N 35°04' E 136°52'0 0.0
2018-Feb-13 01:30N 35°04' E 136°52'0 0.0
2018-Feb-13 01:01N 35°04' E 136°52'0 0.0
2018-Feb-13 00:30N 35°04' E 136°52'0 0.0
2018-Feb-13 00:01N 35°04' E 136°52'0 0.0
2018-Feb-12 23:30N 35°04' E 136°52'0 0.0
2018-Feb-12 23:00N 35°04' E 136°52'0 0.0
2018-Feb-12 22:31N 35°04' E 136°52'0 0.0
2018-Feb-12 22:01N 35°04' E 136°52'0 0.0
2018-Feb-12 21:30N 35°04' E 136°52'0 0.0
2018-Feb-12 21:00N 35°04' E 136°52'0 0.0
2018-Feb-12 20:31N 35°04' E 136°52'0 0.0
2018-Feb-12 20:00N 35°04' E 136°52'0 0.0
2018-Feb-12 19:30N 35°04' E 136°52'0 0.0
2018-Feb-12 19:01N 35°04' E 136°52'0 0.0
2018-Feb-12 18:30N 35°04' E 136°52'0 0.0
2018-Feb-12 18:01N 35°04' E 136°52'0 0.0
2018-Feb-12 17:30N 35°04' E 136°52'0 0.0
2018-Feb-12 17:00N 35°04' E 136°52'0 0.0
2018-Feb-12 16:31N 35°04' E 136°52'0 0.0
2018-Feb-12 16:00N 35°04' E 136°52'0 0.0
2018-Feb-12 15:31N 35°04' E 136°52'0 0.0
2018-Feb-12 15:00N 35°04' E 136°52'0 0.0
2018-Feb-12 14:31N 35°04' E 136°52'0 0.0
2018-Feb-12 14:00N 35°04' E 136°52'0 0.0
2018-Feb-12 13:31N 35°04' E 136°52'0 0.0
2018-Feb-12 13:01N 35°04' E 136°52'0 0.0
2018-Feb-12 12:30N 35°04' E 136°52'0 0.0
2018-Feb-12 12:01N 35°04' E 136°52'0 0.0
2018-Feb-12 11:30N 35°04' E 136°52'0 0.0
2018-Feb-12 11:01N 35°04' E 136°52'0 0.0
2018-Feb-12 10:30N 35°04' E 136°52'0 0.0
2018-Feb-12 10:00N 35°04' E 136°52'0 0.0
2018-Feb-12 09:30N 35°04' E 136°52'0 0.0
2018-Feb-12 09:01N 35°04' E 136°52'0 0.0
2018-Feb-12 08:30N 35°04' E 136°52'0 0.0
2018-Feb-12 08:00N 35°04' E 136°52'0 0.0
2018-Feb-12 07:30N 35°04' E 136°52'0 0.0
2018-Feb-12 07:00N 35°04' E 136°52'0 0.0
2018-Feb-12 06:30N 35°04' E 136°52'0 0.0
2018-Feb-12 06:00N 35°04' E 136°52'0 0.0
2018-Feb-12 05:31N 35°04' E 136°52'0 0.0
2018-Feb-12 05:01N 35°04' E 136°52'0 0.0
2018-Feb-12 04:30N 35°04' E 136°52'0 0.0
2018-Feb-12 04:00N 35°04' E 136°52'0 0.0
2018-Feb-12 03:30N 35°04' E 136°52'0 0.0
2018-Feb-12 03:00N 35°04' E 136°52'0 0.0
2018-Feb-12 02:30N 35°04' E 136°52'0 0.0
2018-Feb-12 02:00N 35°04' E 136°52'0 0.0
2018-Feb-12 01:30N 35°04' E 136°52'2 4.1
2018-Feb-12 01:01N 35°03' E 136°53'0 0.2
2018-Feb-12 00:30N 35°03' E 136°53'0 0.0
2018-Feb-12 00:01N 35°03' E 136°53'0 0.0
2018-Feb-11 23:31N 35°03' E 136°53'0 0.0
2018-Feb-11 23:00N 35°03' E 136°53'0 0.0
2018-Feb-11 22:31N 35°03' E 136°53'0 0.4
2018-Feb-11 22:01N 35°03' E 136°53'2 3.7
2018-Feb-11 21:30N 35°04' E 136°52'0 0.2
2018-Feb-11 21:00N 35°04' E 136°52'0 0.0
2018-Feb-11 20:30N 35°04' E 136°52'0 0.0
2018-Feb-11 20:00N 35°04' E 136°52'0 0.0
2018-Feb-11 19:31N 35°04' E 136°52'0 0.0
2018-Feb-11 19:00N 35°04' E 136°52'0 0.0
2018-Feb-11 18:31N 35°04' E 136°52'0 0.0
2018-Feb-11 18:01N 35°04' E 136°52'0 0.0
2018-Feb-11 17:30N 35°04' E 136°52'0 0.0
2018-Feb-11 17:01N 35°04' E 136°52'0 0.0
2018-Feb-11 16:30N 35°04' E 136°52'0 0.0
2018-Feb-11 16:01N 35°04' E 136°52'0 0.0
2018-Feb-11 15:30N 35°04' E 136°52'0 0.0
2018-Feb-11 15:01N 35°04' E 136°52'0 0.0
2018-Feb-11 14:30N 35°04' E 136°52'0 0.0
2018-Feb-11 14:00N 35°04' E 136°52'0 0.0
2018-Feb-11 13:30N 35°04' E 136°52'0 0.0
2018-Feb-11 13:00N 35°04' E 136°52'0 0.0
2018-Feb-11 12:30N 35°04' E 136°52'0 0.0
2018-Feb-11 12:00N 35°04' E 136°52'0 0.0
2018-Feb-11 11:31N 35°04' E 136°52'0 0.0
2018-Feb-11 11:00N 35°04' E 136°52'0 0.0
2018-Feb-11 10:30N 35°04' E 136°52'0 0.0
2018-Feb-11 10:00N 35°04' E 136°52'0 0.0
2018-Feb-11 09:30N 35°04' E 136°52'0 0.0
2018-Feb-11 09:00N 35°04' E 136°52'0 0.0
2018-Feb-11 08:30N 35°04' E 136°52'0 0.0
2018-Feb-11 08:00N 35°04' E 136°52'0 0.0
2018-Feb-11 07:30N 35°04' E 136°52'0 0.0
2018-Feb-11 07:00N 35°04' E 136°52'0 0.0
2018-Feb-11 06:30N 35°04' E 136°52'0 0.0
2018-Feb-11 06:00N 35°04' E 136°52'0 0.0
2018-Feb-11 05:30N 35°04' E 136°52'0 0.0
2018-Feb-11 05:01N 35°04' E 136°52'0 0.0
2018-Feb-11 04:31N 35°04' E 136°52'0 0.0
2018-Feb-11 04:01N 35°04' E 136°52'0 0.0
2018-Feb-11 03:30N 35°04' E 136°52'0 0.0
2018-Feb-11 03:00N 35°04' E 136°52'0 0.0
2018-Feb-11 02:31N 35°04' E 136°52'0 0.0
2018-Feb-11 02:00N 35°04' E 136°52'0 0.0
2018-Feb-11 01:31N 35°04' E 136°52'0 0.0
2018-Feb-11 01:00N 35°04' E 136°52'0 0.0
2018-Feb-11 00:30N 35°04' E 136°52'0 0.0
2018-Feb-11 00:00N 35°04' E 136°52'0 0.0
2018-Feb-10 23:31N 35°04' E 136°52'0 0.0
2018-Feb-10 23:00N 35°04' E 136°52'0 0.0
2018-Feb-10 22:30N 35°04' E 136°52'0 0.0
2018-Feb-10 22:00N 35°04' E 136°52'0 0.0
2018-Feb-10 21:30N 35°04' E 136°52'0 0.0
2018-Feb-10 21:00N 35°04' E 136°52'0 0.0
2018-Feb-10 20:30N 35°04' E 136°52'0 0.0
2018-Feb-10 19:59N 35°04' E 136°52'0 0.0
2018-Feb-10 19:30N 35°04' E 136°52'0 0.0
2018-Feb-10 19:00N 35°04' E 136°52'0 0.0
2018-Feb-10 18:30N 35°04' E 136°52'0 0.0
2018-Feb-10 18:01N 35°04' E 136°52'0 0.0
2018-Feb-10 17:31N 35°04' E 136°52'0 0.0
2018-Feb-10 17:01N 35°04' E 136°52'0 0.0
2018-Feb-10 16:30N 35°04' E 136°52'0 0.0
2018-Feb-10 16:00N 35°04' E 136°52'0 0.0
2018-Feb-10 15:30N 35°04' E 136°52'0 0.0
2018-Feb-10 15:00N 35°04' E 136°52'0 0.0
2018-Feb-10 14:31N 35°04' E 136°52'0 0.0
2018-Feb-10 14:00N 35°04' E 136°52'0 0.0
2018-Feb-10 13:30N 35°04' E 136°52'0 0.0
2018-Feb-10 13:01N 35°04' E 136°52'0 0.0
2018-Feb-10 12:30N 35°04' E 136°52'0 0.0
2018-Feb-10 12:01N 35°04' E 136°52'0 0.0
2018-Feb-10 11:31N 35°04' E 136°52'  
Track history (hours):
 
Tides and Currents Weather Stations Pressure Air Temp Water Temp Dewpoint Dewpoint Depression Visibility Wind Speed Wind Dir Waves Ship Positions

Koushinmaru No.5

Last reported at 2018-Feb-20 11:29 UTC. Time now 2018-Feb-20 11:38 UTC.
Position N 35°21' E 139°54'.

Length 75 m; draft 4.8 m.

Type: Cargo ship. MMSI: 431301703.

Date/timePositionNaut miles runAvg speedWind from/ knotsBaromVisibWave heightAir tempDewpointWater temp
2018-Feb-20 11:29N 35°21' E 139°54'0 0.0
2018-Feb-20 11:00N 35°21' E 139°54'0 0.0
2018-Feb-20 10:30N 35°21' E 139°54'0 0.0
2018-Feb-20 10:00N 35°21' E 139°54'0 0.0
2018-Feb-20 09:30N 35°21' E 139°54'0 0.0
2018-Feb-20 09:00N 35°21' E 139°54'0 0.0
2018-Feb-20 08:30N 35°21' E 139°54'0 0.0
2018-Feb-20 08:00N 35°21' E 139°54'0 0.0
2018-Feb-20 07:30N 35°21' E 139°54'0 0.0
2018-Feb-18 05:37N 35°21' E 139°54'0 0.0
2018-Feb-18 05:30N 35°21' E 139°54'3 6.7
2018-Feb-18 05:00N 35°23' E 139°50'611.4
2018-Feb-18 04:30N 35°29' E 139°51'712.4
2018-Feb-18 03:56N 35°35' E 139°56'6 0.4
2018-Feb-17 12:36N 35°41' E 139°57'0 0.0
2018-Feb-17 12:10N 35°41' E 139°57'3 0.4
2018-Feb-17 04:25N 35°38' E 139°58'510.6
2018-Feb-17 03:59N 35°34' E 139°55'611.8
2018-Feb-17 03:30N 35°30' E 139°50'611.7
2018-Feb-17 03:00N 35°27' E 139°45'5 9.0
2018-Feb-17 02:30N 35°28' E 139°39'0 0.3
2018-Feb-17 02:00N 35°29' E 139°39'0 0.0
2018-Feb-17 01:30N 35°29' E 139°39'0 0.0
2018-Feb-17 01:00N 35°29' E 139°39'0 0.0
2018-Feb-17 00:30N 35°29' E 139°39'0 0.0
2018-Feb-17 00:00N 35°29' E 139°39'0 0.0
2018-Feb-16 23:30N 35°29' E 139°39'0 0.0
2018-Feb-16 23:00N 35°29' E 139°39'1 1.1
2018-Feb-16 22:30N 35°28' E 139°40'3 6.3
2018-Feb-16 22:00N 35°27' E 139°43'0 0.0
2018-Feb-16 21:30N 35°27' E 139°43'0 0.0
2018-Feb-16 21:00N 35°27' E 139°43'0 0.0
2018-Feb-16 20:30N 35°27' E 139°43'0 0.0
2018-Feb-16 20:00N 35°27' E 139°43'0 0.0
2018-Feb-16 19:30N 35°27' E 139°43'0 0.0
2018-Feb-16 19:00N 35°27' E 139°43'0 0.1
2018-Feb-16 18:30N 35°27' E 139°43'0 0.1
2018-Feb-16 18:00N 35°27' E 139°43'0 0.0
2018-Feb-16 17:30N 35°27' E 139°43'0 0.0
2018-Feb-16 17:00N 35°27' E 139°43'0 0.0
2018-Feb-16 16:30N 35°27' E 139°43'0 0.1
2018-Feb-16 16:00N 35°27' E 139°43'0 0.0
2018-Feb-16 15:30N 35°27' E 139°43'0 0.0
2018-Feb-16 15:00N 35°27' E 139°43'0 0.0
2018-Feb-16 14:30N 35°27' E 139°43'0 0.1
2018-Feb-16 14:00N 35°27' E 139°43'0 0.1
2018-Feb-16 13:30N 35°27' E 139°43'0 0.0
2018-Feb-16 13:00N 35°27' E 139°43'0 0.0
2018-Feb-16 12:30N 35°27' E 139°43'0 0.0
2018-Feb-16 12:00N 35°27' E 139°43'0 0.0
2018-Feb-16 11:30N 35°27' E 139°43'0 0.0
2018-Feb-16 11:00N 35°27' E 139°43'0 0.0
2018-Feb-16 10:30N 35°27' E 139°43'0 0.0
2018-Feb-16 10:00N 35°27' E 139°43'0 0.0
2018-Feb-16 09:30N 35°27' E 139°43'0 0.0
2018-Feb-16 09:00N 35°27' E 139°43'0 0.0
2018-Feb-16 08:30N 35°27' E 139°43'0 0.0
2018-Feb-16 08:00N 35°27' E 139°43'0 0.0
2018-Feb-16 07:30N 35°27' E 139°43'0 0.0
2018-Feb-16 07:00N 35°27' E 139°43'0 0.0
2018-Feb-16 06:30N 35°27' E 139°43'0 0.0
2018-Feb-16 06:00N 35°27' E 139°43'0 0.0
2018-Feb-16 05:30N 35°27' E 139°43'0 0.0
2018-Feb-16 05:00N 35°27' E 139°43'0 0.0
2018-Feb-16 04:30N 35°27' E 139°43'0 0.1
2018-Feb-16 04:00N 35°27' E 139°43'0 0.0
2018-Feb-16 03:30N 35°27' E 139°43'0 0.5
2018-Feb-16 03:00N 35°27' E 139°43'4 8.9
2018-Feb-16 02:30N 35°22' E 139°43'510.8
2018-Feb-16 02:00N 35°17' E 139°45'510.3
2018-Feb-16 01:30N 35°12' E 139°47'510.8
2018-Feb-16 01:00N 35°07' E 139°46'510.8
2018-Feb-16 00:30N 35°02' E 139°43'510.8
2018-Feb-16 00:00N 34°58' E 139°39'1011.9
2018-Feb-15 23:09N 34°53' E 139°28'312.3
2018-Feb-15 22:55N 34°52' E 139°25'612.0
2018-Feb-15 22:27N 34°49' E 139°19'711.9
2018-Feb-15 21:54N 34°45' E 139°12'511.0
2018-Feb-15 21:26N 34°42' E 139°07'510.9
2018-Feb-15 20:59N 34°39' E 139°03'5 9.9
2018-Feb-15 20:27N 34°36' E 138°58'4 9.8
2018-Feb-15 20:00N 34°35' E 138°52'710.5
2018-Feb-15 19:23N 34°34' E 138°45'411.1
2018-Feb-15 19:00N 34°34' E 138°39'611.3
2018-Feb-15 18:30N 34°34' E 138°33'611.5
2018-Feb-15 17:59N 34°33' E 138°25'611.9
2018-Feb-15 17:30N 34°33' E 138°18'7411.1
2018-Feb-15 10:50N 34°42' E 136°49'412.1
2018-Feb-15 10:30N 34°45' E 136°47'611.6
2018-Feb-15 10:00N 34°51' E 136°45'611.5
2018-Feb-15 09:30N 34°57' E 136°47'611.7
2018-Feb-15 09:00N 35°02' E 136°51'2 4.2
2018-Feb-15 08:30N 35°03' E 136°53'0 0.0
2018-Feb-15 08:00N 35°03' E 136°53'0 0.0
2018-Feb-15 07:30N 35°03' E 136°53'0 0.0
2018-Feb-15 07:00N 35°03' E 136°53'0 0.0
2018-Feb-15 06:30N 35°03' E 136°53'0 0.0
2018-Feb-15 06:00N 35°03' E 136°53'0 0.0
2018-Feb-15 05:30N 35°03' E 136°53'0 0.0
2018-Feb-15 01:10N 35°03' E 136°53'0 0.0
2018-Feb-15 01:00N 35°03' E 136°53'0 0.0
2018-Feb-14 11:04N 35°03' E 136°53'0 0.0
2018-Feb-14 11:00N 35°03' E 136°53'2 3.3
2018-Feb-14 10:30N 35°03' E 136°52'1 1.1
2018-Feb-14 10:01N 35°04' E 136°52'0 0.0
2018-Feb-14 09:30N 35°04' E 136°52'0 0.0
2018-Feb-14 09:01N 35°04' E 136°52'0 0.0
2018-Feb-14 08:30N 35°04' E 136°52'0 0.0
2018-Feb-14 08:01N 35°04' E 136°52'0 0.0
2018-Feb-14 07:30N 35°04' E 136°52'0 0.0
2018-Feb-14 07:00N 35°04' E 136°52'0 0.0
2018-Feb-14 06:30N 35°04' E 136°52'0 0.0
2018-Feb-14 06:01N 35°04' E 136°52'0 0.0
2018-Feb-14 05:31N 35°04' E 136°52'0 0.0
2018-Feb-14 05:00N 35°04' E 136°52'0 0.0
2018-Feb-14 04:30N 35°04' E 136°52'0 0.0
2018-Feb-14 04:00N 35°04' E 136°52'0 0.0
2018-Feb-14 03:31N 35°04' E 136°52'0 0.4
2018-Feb-14 03:00N 35°04' E 136°51'0 0.0
2018-Feb-14 02:31N 35°04' E 136°51'0 0.0
2018-Feb-14 02:00N 35°04' E 136°51'0 0.0
2018-Feb-14 01:31N 35°04' E 136°51'0 0.0
2018-Feb-14 01:01N 35°04' E 136°51'0 0.0
2018-Feb-14 00:31N 35°04' E 136°51'0 0.0
2018-Feb-14 00:00N 35°04' E 136°51'0 0.0
2018-Feb-13 23:31N 35°04' E 136°51'0 0.0
2018-Feb-13 23:01N 35°04' E 136°51'0 0.0
2018-Feb-13 22:31N 35°04' E 136°51'0 0.0
2018-Feb-13 22:00N 35°04' E 136°51'0 0.0
2018-Feb-13 21:31N 35°04' E 136°51'0 0.0
2018-Feb-13 21:01N 35°04' E 136°51'0 0.0
2018-Feb-13 20:31N 35°04' E 136°51'0 0.0
2018-Feb-13 20:00N 35°04' E 136°51'0 0.0
2018-Feb-13 19:31N 35°04' E 136°51'0 0.0
2018-Feb-13 19:01N 35°04' E 136°51'0 0.0
2018-Feb-13 18:30N 35°04' E 136°51'0 0.0
2018-Feb-13 18:01N 35°04' E 136°51'0 0.0
2018-Feb-13 17:30N 35°04' E 136°51'0 0.0
2018-Feb-13 17:00N 35°04' E 136°51'0 0.0
2018-Feb-13 16:30N 35°04' E 136°51'0 0.0
2018-Feb-13 16:01N 35°04' E 136°51'0 0.0
2018-Feb-13 15:30N 35°04' E 136°51'0 0.0
2018-Feb-13 15:01N 35°04' E 136°51'0 0.0
2018-Feb-13 14:30N 35°04' E 136°51'0 0.0
2018-Feb-13 14:01N 35°04' E 136°51'0 0.0
2018-Feb-13 13:30N 35°04' E 136°51'0 0.0
2018-Feb-13 13:01N 35°04' E 136°51'0 0.0
2018-Feb-13 12:31N 35°04' E 136°51'0 0.0
2018-Feb-13 12:00N 35°04' E 136°51'0 0.0
2018-Feb-13 11:31N 35°04' E 136°51'0 0.0
2018-Feb-13 11:00N 35°04' E 136°51'0 0.0
2018-Feb-13 10:31N 35°04' E 136°51'0 0.0
2018-Feb-13 10:00N 35°04' E 136°51'0 0.0
2018-Feb-13 09:30N 35°04' E 136°51'0 0.0
2018-Feb-13 09:00N 35°04' E 136°51'0 0.0
2018-Feb-13 08:31N 35°04' E 136°51'0 0.0
2018-Feb-13 08:00N 35°04' E 136°51'0 0.0
2018-Feb-13 07:31N 35°04' E 136°51'0 0.0
2018-Feb-13 07:01N 35°04' E 136°51'0 0.0
2018-Feb-13 06:30N 35°04' E 136°51'0 0.0
2018-Feb-13 06:00N 35°04' E 136°51'0 0.0
2018-Feb-13 05:31N 35°04' E 136°51'0 0.0
2018-Feb-13 05:01N 35°04' E 136°51'0 0.3
2018-Feb-13 04:30N 35°04' E 136°52'0 0.0
2018-Feb-13 04:00N 35°04' E 136°52'0 0.0
2018-Feb-13 03:31N 35°04' E 136°52'0 0.0
2018-Feb-13 03:00N 35°04' E 136°52'0 0.0
2018-Feb-13 02:31N 35°04' E 136°52'0 0.0
2018-Feb-13 02:00N 35°04' E 136°52'0 0.0
2018-Feb-13 01:30N 35°04' E 136°52'0 0.0
2018-Feb-13 01:01N 35°04' E 136°52'0 0.0
2018-Feb-13 00:30N 35°04' E 136°52'0 0.0
2018-Feb-13 00:01N 35°04' E 136°52'0 0.0
2018-Feb-12 23:30N 35°04' E 136°52'0 0.0
2018-Feb-12 23:00N 35°04' E 136°52'0 0.0
2018-Feb-12 22:31N 35°04' E 136°52'0 0.0
2018-Feb-12 22:01N 35°04' E 136°52'0 0.0
2018-Feb-12 21:30N 35°04' E 136°52'0 0.0
2018-Feb-12 21:00N 35°04' E 136°52'0 0.0
2018-Feb-12 20:31N 35°04' E 136°52'0 0.0
2018-Feb-12 20:00N 35°04' E 136°52'0 0.0
2018-Feb-12 19:30N 35°04' E 136°52'0 0.0
2018-Feb-12 19:01N 35°04' E 136°52'0 0.0
2018-Feb-12 18:30N 35°04' E 136°52'0 0.0
2018-Feb-12 18:01N 35°04' E 136°52'0 0.0
2018-Feb-12 17:30N 35°04' E 136°52'0 0.0
2018-Feb-12 17:00N 35°04' E 136°52'0 0.0
2018-Feb-12 16:31N 35°04' E 136°52'0 0.0
2018-Feb-12 16:00N 35°04' E 136°52'0 0.0
2018-Feb-12 15:31N 35°04' E 136°52'0 0.0
2018-Feb-12 15:00N 35°04' E 136°52'0 0.0
2018-Feb-12 14:31N 35°04' E 136°52'0 0.0
2018-Feb-12 14:00N 35°04' E 136°52'0 0.0
2018-Feb-12 13:31N 35°04' E 136°52'0 0.0
2018-Feb-12 13:01N 35°04' E 136°52'0 0.0
2018-Feb-12 12:30N 35°04' E 136°52'0 0.0
2018-Feb-12 12:01N 35°04' E 136°52'0 0.0
2018-Feb-12 11:30N 35°04' E 136°52'0 0.0
2018-Feb-12 11:01N 35°04' E 136°52'0 0.0
2018-Feb-12 10:30N 35°04' E 136°52'0 0.0
2018-Feb-12 10:00N 35°04' E 136°52'0 0.0
2018-Feb-12 09:30N 35°04' E 136°52'0 0.0
2018-Feb-12 09:01N 35°04' E 136°52'0 0.0
2018-Feb-12 08:30N 35°04' E 136°52'0 0.0
2018-Feb-12 08:00N 35°04' E 136°52'0 0.0
2018-Feb-12 07:30N 35°04' E 136°52'0 0.0
2018-Feb-12 07:00N 35°04' E 136°52'0 0.0
2018-Feb-12 06:30N 35°04' E 136°52'0 0.0
2018-Feb-12 06:00N 35°04' E 136°52'0 0.0
2018-Feb-12 05:31N 35°04' E 136°52'0 0.0
2018-Feb-12 05:01N 35°04' E 136°52'0 0.0
2018-Feb-12 04:30N 35°04' E 136°52'0 0.0
2018-Feb-12 04:00N 35°04' E 136°52'0 0.0
2018-Feb-12 03:30N 35°04' E 136°52'0 0.0
2018-Feb-12 03:00N 35°04' E 136°52'0 0.0
2018-Feb-12 02:30N 35°04' E 136°52'0 0.0
2018-Feb-12 02:00N 35°04' E 136°52'0 0.0
2018-Feb-12 01:30N 35°04' E 136°52'2 4.1
2018-Feb-12 01:01N 35°03' E 136°53'0 0.2
2018-Feb-12 00:30N 35°03' E 136°53'0 0.0
2018-Feb-12 00:01N 35°03' E 136°53'0 0.0
2018-Feb-11 23:31N 35°03' E 136°53'0 0.0
2018-Feb-11 23:00N 35°03' E 136°53'0 0.0
2018-Feb-11 22:31N 35°03' E 136°53'0 0.4
2018-Feb-11 22:01N 35°03' E 136°53'2 3.7
2018-Feb-11 21:30N 35°04' E 136°52'0 0.2
2018-Feb-11 21:00N 35°04' E 136°52'0 0.0
2018-Feb-11 20:30N 35°04' E 136°52'0 0.0
2018-Feb-11 20:00N 35°04' E 136°52'0 0.0
2018-Feb-11 19:31N 35°04' E 136°52'0 0.0
2018-Feb-11 19:00N 35°04' E 136°52'0 0.0
2018-Feb-11 18:31N 35°04' E 136°52'0 0.0
2018-Feb-11 18:01N 35°04' E 136°52'0 0.0
2018-Feb-11 17:30N 35°04' E 136°52'0 0.0
2018-Feb-11 17:01N 35°04' E 136°52'0 0.0
2018-Feb-11 16:30N 35°04' E 136°52'0 0.0
2018-Feb-11 16:01N 35°04' E 136°52'0 0.0
2018-Feb-11 15:30N 35°04' E 136°52'0 0.0
2018-Feb-11 15:01N 35°04' E 136°52'0 0.0
2018-Feb-11 14:30N 35°04' E 136°52'0 0.0
2018-Feb-11 14:00N 35°04' E 136°52'0 0.0
2018-Feb-11 13:30N 35°04' E 136°52'0 0.0
2018-Feb-11 13:00N 35°04' E 136°52'0 0.0
2018-Feb-11 12:30N 35°04' E 136°52'0 0.0
2018-Feb-11 12:00N 35°04' E 136°52'0 0.0
2018-Feb-11 11:31N 35°04' E 136°52'0 0.0
2018-Feb-11 11:00N 35°04' E 136°52'0 0.0
2018-Feb-11 10:30N 35°04' E 136°52'0 0.0
2018-Feb-11 10:00N 35°04' E 136°52'0 0.0
2018-Feb-11 09:30N 35°04' E 136°52'0 0.0
2018-Feb-11 09:00N 35°04' E 136°52'0 0.0
2018-Feb-11 08:30N 35°04' E 136°52'0 0.0
2018-Feb-11 08:00N 35°04' E 136°52'0 0.0
2018-Feb-11 07:30N 35°04' E 136°52'0 0.0
2018-Feb-11 07:00N 35°04' E 136°52'0 0.0
2018-Feb-11 06:30N 35°04' E 136°52'0 0.0
2018-Feb-11 06:00N 35°04' E 136°52'0 0.0
2018-Feb-11 05:30N 35°04' E 136°52'0 0.0
2018-Feb-11 05:01N 35°04' E 136°52'0 0.0
2018-Feb-11 04:31N 35°04' E 136°52'0 0.0
2018-Feb-11 04:01N 35°04' E 136°52'0 0.0
2018-Feb-11 03:30N 35°04' E 136°52'0 0.0
2018-Feb-11 03:00N 35°04' E 136°52'0 0.0
2018-Feb-11 02:31N 35°04' E 136°52'0 0.0
2018-Feb-11 02:00N 35°04' E 136°52'0 0.0
2018-Feb-11 01:31N 35°04' E 136°52'0 0.0
2018-Feb-11 01:00N 35°04' E 136°52'0 0.0
2018-Feb-11 00:30N 35°04' E 136°52'0 0.0
2018-Feb-11 00:00N 35°04' E 136°52'0 0.0
2018-Feb-10 23:31N 35°04' E 136°52'0 0.0
2018-Feb-10 23:00N 35°04' E 136°52'0 0.0
2018-Feb-10 22:30N 35°04' E 136°52'0 0.0
2018-Feb-10 22:00N 35°04' E 136°52'0 0.0
2018-Feb-10 21:30N 35°04' E 136°52'0 0.0
2018-Feb-10 21:00N 35°04' E 136°52'0 0.0
2018-Feb-10 20:30N 35°04' E 136°52'0 0.0
2018-Feb-10 19:59N 35°04' E 136°52'0 0.0
2018-Feb-10 19:30N 35°04' E 136°52'0 0.0
2018-Feb-10 19:00N 35°04' E 136°52'0 0.0
2018-Feb-10 18:30N 35°04' E 136°52'0 0.0
2018-Feb-10 18:01N 35°04' E 136°52'0 0.0
2018-Feb-10 17:31N 35°04' E 136°52'0 0.0
2018-Feb-10 17:01N 35°04' E 136°52'0 0.0
2018-Feb-10 16:30N 35°04' E 136°52'0 0.0
2018-Feb-10 16:00N 35°04' E 136°52'0 0.0
2018-Feb-10 15:30N 35°04' E 136°52'0 0.0
2018-Feb-10 15:00N 35°04' E 136°52'0 0.0
2018-Feb-10 14:31N 35°04' E 136°52'0 0.0
2018-Feb-10 14:00N 35°04' E 136°52'0 0.0
2018-Feb-10 13:30N 35°04' E 136°52'0 0.0
2018-Feb-10 13:01N 35°04' E 136°52'0 0.0
2018-Feb-10 12:30N 35°04' E 136°52'0 0.0
2018-Feb-10 12:01N 35°04' E 136°52'0 0.0
2018-Feb-10 11:31N 35°04' E 136°52'  

Dump ship's entire track history